CET,Max TemperatureF,Mean TemperatureF,Min TemperatureF,Max Dew PointF,MeanDew PointF,Min DewpointF,Max Humidity, Mean Humidity, Min Humidity, Max Sea Level PressureIn, Mean Sea Level PressureIn, Min Sea Level PressureIn, Max VisibilityMiles, Mean VisibilityMiles, Min VisibilityMiles, Max Wind SpeedMPH, Mean Wind SpeedMPH, Max Gust SpeedMPH,PrecipitationIn, CloudCover, Events, WindDirDegrees
2012-10-1,68,52,37,50,44,37,100,83,35,30.21,30.17,30.15,6,2,0,9,1,,0.00,3,Fog,45
2012-10-2,73,55,37,54,45,37,100,79,31,30.21,30.19,30.12,6,4,2,14,1,,0.00,2,Fog,40
2012-10-3,77,60,42,55,50,43,100,83,34,30.18,30.12,30.04,6,4,0,13,1,,0.00,3,Fog,348
2012-10-4,73,62,50,55,50,37,100,73,27,30.12,30.07,30.04,6,5,4,9,1,,0.00,4,,68
2012-10-5,78,60,42,55,48,41,100,72,30,30.09,30.06,30.04,,,,10,2,,0.00,,,240
2012-10-6,71,56,42,61,52,43,100,78,56,30.15,30.10,30.06,,,,12,2,,0.00,,,211
2012-10-7,78,66,55,61,58,55,100,81,44,30.24,30.19,30.15,6,6,6,9,1,,0.00,3,,46
2012-10-8,82,68,53,61,57,48,100,80,30,30.18,30.12,30.06,6,6,4,17,3,,0.00,2,,3
2012-10-9,82,68,53,59,55,46,100,75,28,30.15,30.09,30.01,6,6,5,14,2,,0.00,3,,242
2012-10-10,71,65,59,63,60,57,100,86,64,30.06,29.99,29.92,6,6,4,7,1,,0.00,4,Rain-Thunderstorm,50
2012-10-11,73,63,53,61,56,52,100,85,50,29.98,29.89,29.83,6,6,4,16,4,,0.00,4,Rain-Thunderstorm,306
2012-10-12,59,54,50,54,50,46,94,86,72,30.12,30.07,29.98,6,6,4,13,5,,0.00,6,Rain,4
2012-10-13,64,52,41,50,44,39,100,83,45,30.09,30.01,29.92,6,4,0,9,1,,0.00,2,Fog,59
2012-10-14,60,50,41,52,45,41,100,80,58,29.92,29.79,29.71,6,6,4,21,6,39,0.00,4,Rain,263
2012-10-15,59,50,41,46,44,39,93,80,51,29.98,29.92,29.83,6,6,6,9,3,,0.00,4,,296
2012-10-16,66,54,42,48,43,41,94,66,40,29.98,29.91,29.80,6,6,4,17,6,,0.00,3,Rain,211
2012-10-17,69,58,48,46,42,39,76,56,35,29.86,29.76,29.65,6,6,6,16,6,,0.00,2,,208
2012-10-18,66,60,53,55,51,46,94,71,59,29.71,29.63,29.59,6,6,6,22,11,33,0.00,5,Rain,134
2012-10-19,64,57,50,57,51,45,100,89,63,29.95,29.77,29.62,6,6,3,15,6,26,0.00,6,Rain-Thunderstorm,25
2012-10-20,53,52,50,54,51,50,100,98,94,29.95,29.92,29.86,6,5,3,6,1,,0.00,7,Rain,313
2012-10-21,57,54,51,55,53,52,100,97,88,30.01,29.91,29.86,6,5,3,6,1,,0.00,6,Rain,338
2012-10-22,69,60,50,54,51,48,100,86,46,30.15,30.06,30.01,6,6,6,8,1,,0.00,3,Rain,212
2012-10-23,66,55,44,54,48,45,100,91,56,30.15,30.11,30.06,6,2,0,7,0,,0.00,1,Fog,23
2012-10-24,66,52,39,55,48,39,100,88,59,30.06,29.95,29.86,6,4,0,15,2,,0.00,2,Fog-Rain,188
2012-10-25,66,58,51,55,54,52,100,89,64,29.89,29.78,29.65,6,6,3,8,3,,0.00,4,Rain,84
2012-10-26,62,56,51,54,53,52,100,91,72,29.65,29.57,29.53,6,6,3,9,3,15,0.00,4,Rain,257
2012-10-27,53,46,39,52,44,36,100,91,81,30.04,29.78,29.56,6,6,4,22,8,,0.00,6,Rain,353
2012-10-28,44,40,35,39,37,34,100,88,71,30.15,30.09,30.04,6,6,3,15,6,24,0.00,5,Rain,342
2012-10-29,55,42,30,41,35,30,100,88,54,30.09,29.95,29.80,6,3,0,9,2,,0.00,3,Fog,179
2012-10-30,51,40,30,37,34,30,100,84,50,29.80,29.67,29.59,6,6,6,8,1,,0.00,1,,85
2012-10-31,53,42,30,43,37,30,100,86,62,29.56,29.51,29.44,6,5,0,17,4,,0.00,2,Fog,223